Aviation Digital Data Service (ADDS)

Output produced by METARs form (1738 UTC 27 May 2017)
found at http://www.aviationweather.gov/adds/metars/
 
LOWG 271720Z 12006KT 9999 FEW070 23/10 Q1020 NOSIG
TAF LOWG 271715Z 2718/2818 12004KT CAVOK TX25/2815Z TN10/2803Z 
     TEMPO 2810/2817 16008KT 9999 FEW060
       
LOWI 271720Z 06010KT 030V100 CAVOK 26/10 Q1018 NOSIG
TAF LOWI 271715Z 2718/2818 09007KT 9999 FEW070 TX30/2815Z TN10/2804Z 
     BECMG 2718/2720 VRB02KT CAVOK 
     BECMG 2808/2810 09007KT 9999 FEW070 
     TEMPO 2814/2818 09010G20KT SCT070
       
LOWK 271720Z 08006KT 050V130 9999 FEW070 25/09 Q1019 NOSIG
TAF LOWK 271715Z 2718/2818 VRB02KT CAVOK TX26/2815Z TN12/2803Z 
     BECMG 2804/2806 9999 FEW060 
     TEMPO 2811/2818 10008KT
       
LOWL 271720Z AUTO 12006KT 9999 NCD 24/11 Q1020 NOSIG
TAF LOWL 271715Z 2718/2818 11010KT 9999 FEW060 TX27/2815Z TN12/2804Z 
     TEMPO 2722/2808 08005KT CAVOK
       
LOWS 271720Z 03009KT 360V060 CAVOK 25/09 Q1020 NOSIG
TAF LOWS 271715Z 2718/2818 05008KT CAVOK TX28/2815Z TN13/2803Z 
     BECMG 2718/2720 15005KT 
     BECMG 2807/2809 05007KT 9999 FEW060 
     TEMPO 2811/2816 03012KT
       
LOWW 271720Z 02008KT CAVOK 22/09 Q1021 NOSIG
TAF LOWW 271715Z 2718/2824 02008KT CAVOK TX26/2815Z TN10/2803Z 
     BECMG 2718/2720 36005KT 
     BECMG 2802/2805 12005KT 
     BECMG 2806/2810 14010KT
       
LOAV 271700Z 06015KT 40KM FEW040CU 23/07
TAF AMD LOAV 271306Z 2713/2721 33008KT 9999 SCT040 
     TEMPO 2713/2720 03015KT BKN050
       
LOAN 271700Z 04009KT 35KM FEW070CU
TAF LOAN 271125Z 2712/2721 03008KT 9999 SCT050
       
LOXZ 271650Z 09009KT 40KM FEW075CU 24/09 Q1020 NOSIG
TAF COR LOXZ 271415Z 2715/2724 08010G20KT 9999 FEW070 
     BECMG 2718/2720 VRB03KT